ADDS METAR Data

Data at: 1824 UTC 20 Jul 2018

METAR for:KWST (Westerly State Arpt, RI, US)
Text:KWST 201753Z AUTO 19011KT 10SM CLR 26/17 A3018 RMK AO2 SLP219 T02610172 10278 20206 56004
Temperature: 26.1°C ( 79°F)
Dewpoint: 17.2°C ( 63°F) [RH = 58%]
Pressure (altimeter):30.18 inches Hg (1022.1 mb) [Sea level pressure: 1021.9 mb]
Winds:from the S (190 degrees) at 13 MPH (11 knots; 5.7 m/s)
Visibility:10 or more sm (16+ km)
Ceiling:at least 12,000 feet AGL
Clouds:sky clear below 12,000 feet AGL
QC Flag:automated observation with no human augmentation